CheckWX is a tool to help pilots better visualize weather data.  It is not intended as a substitute for an official pre-flight weather briefing.

06:46:42 UTC

KAVK METAR
Alva Regional Airport
Alva, Oklahoma, USA
Current

32 mins ago

KAVK 210615Z AUTO 08008KT 5SM BR OVC003 13/13 A2959 RMK AO2 LTG DSNT ALQDS
Observed
May-21 @ 06:15 UTC
Wind
  • 080° at 8 KTS
Visibility
5 SM
Flight Rules
LIFR
Conditions
Mist
Cloud Levels
  • Overcast at 300' AGL
Temperature
13°C / 55°F
Dewpoint
13°C / 55°F
Humidity
100%
Altimeter
29.59" Hg
Pressure
1002.02 hPa
Previous

52 mins ago

KAVK 210555Z AUTO 05009KT 6SM BR OVC003 13/13 A2958 RMK AO2 LTG DSNT SE AND S
Observed
May-21 @ 05:55 UTC
Wind
  • 050° at 9 KTS
Visibility
6 SM
Flight Rules
LIFR
Conditions
Mist
Cloud Levels
  • Overcast at 300' AGL
Temperature
13°C / 55°F
Dewpoint
13°C / 55°F
Humidity
100%
Altimeter
29.58" Hg
Pressure
1001.72 hPa
Previous

1 hour ago

KAVK 210535Z AUTO 07008KT 10SM OVC003 13/13 A2959 RMK AO2
Observed
May-21 @ 05:35 UTC
Wind
  • 070° at 8 KTS
Visibility
10 SM
Flight Rules
LIFR
Cloud Levels
  • Overcast at 300' AGL
Temperature
13°C / 55°F
Dewpoint
13°C / 55°F
Humidity
100%
Altimeter
29.59" Hg
Pressure
1002.02 hPa